Time;durP1;ratioP1;P1;durP2;ratioP2;P2;SDS_P1;SDS_P2;PMS_P1;PMS_P2;Temp;Humidity;BMP_temperature;BMP_pressure;BME280_temperature;BME280_humidity;BME280_pressure;Samples;Min_cycle;Max_cycle;Signal;HPM_P1;HPM_P2
2022/02/01 00:00:13;;;;;;;72.33;32.30;;;;;;;;;;766991;180;919108;-64
2022/02/01 00:02:42;;;;;;;76.63;31.93;;;;;;;;;;759464;180;920478;-64
2022/02/01 00:05:13;;;;;;;97.60;34.23;;;;;;;;;;766660;180;920453;-63
2022/02/01 00:07:44;;;;;;;80.23;31.00;;;;;;;;;;778284;178;920825;-63
2022/02/01 00:10:10;;;;;;;70.90;28.27;;;;;;;;;;772052;179;623930;-63
2022/02/01 00:12:39;;;;;;;72.70;30.30;;;;;;;;;;774144;177;919937;-63
2022/02/01 00:15:15;;;;;;;85.77;30.33;;;;;;;;;;778160;179;918759;-63
2022/02/01 00:20:08;;;;;;;92.20;33.40;;;;;;;;;;767219;180;919068;-63
2022/02/01 00:35:27;;;;;;;58.60;28.70;;;;;;;;;;774655;180;634551;-62
2022/02/01 00:37:56;;;;;;;69.80;30.57;;;;;;;;;;776654;178;625516;-64
2022/02/01 00:40:12;;;;;;;71.17;31.83;;;;;;;;;;776915;178;631439;-64
2022/02/01 00:42:34;;;;;;;71.70;29.30;;;;;;;;;;782646;180;639851;-62
2022/02/01 00:44:59;;;;;;;78.13;30.57;;;;;;;;;;772292;178;919349;-63
2022/02/01 00:47:25;;;;;;;73.13;31.80;;;;;;;;;;770312;177;919361;-63
2022/02/01 00:49:51;;;;;;;73.37;29.67;;;;;;;;;;778760;180;918564;-64
2022/02/01 00:52:17;;;;;;;70.83;30.20;;;;;;;;;;772892;181;919021;-64
2022/02/01 00:54:43;;;;;;;77.20;30.67;;;;;;;;;;773113;180;918949;-65
2022/02/01 00:57:11;;;;;;;73.33;30.73;;;;;;;;;;776858;178;918475;-64
2022/02/01 00:59:35;;;;;;;101.13;32.23;;;;;;;;;;775141;179;919356;-65
2022/02/01 01:02:01;;;;;;;77.90;31.03;;;;;;;;;;773047;177;918339;-64
2022/02/01 01:04:27;;;;;;;62.70;28.17;;;;;;;;;;778460;180;1020033;-65
2022/02/01 01:06:53;;;;;;;63.60;27.10;;;;;;;;;;775347;180;920152;-64
2022/02/01 01:09:19;;;;;;;65.20;27.27;;;;;;;;;;772532;180;919602;-66
2022/02/01 01:11:45;;;;;;;63.50;27.00;;;;;;;;;;773617;178;919514;-65
2022/02/01 01:15:03;;;;;;;59.50;27.40;;;;;;;;;;773445;178;919161;-66
2022/02/01 01:44:54;;;;;;;56.13;24.80;;;;;;;;;;772929;181;918837;-67
2022/02/01 01:54:54;;;;;;;57.00;26.10;;;;;;;;;;779031;180;920331;-66
2022/02/01 01:57:20;;;;;;;62.17;26.37;;;;;;;;;;771639;180;1020999;-66
2022/02/01 01:59:46;;;;;;;52.63;24.53;;;;;;;;;;769748;178;918677;-65
2022/02/01 02:02:12;;;;;;;54.40;25.40;;;;;;;;;;754449;185;918574;-65
2022/02/01 02:04:37;;;;;;;59.23;27.63;;;;;;;;;;777455;180;918994;-65
2022/02/01 02:07:03;;;;;;;69.00;26.83;;;;;;;;;;769433;180;1034511;-66
2022/02/01 02:09:29;;;;;;;59.90;27.07;;;;;;;;;;771360;179;918912;-65
2022/02/01 02:12:09;;;;;;;48.23;23.70;;;;;;;;;;780389;180;1021170;-66
2022/02/01 02:14:24;;;;;;;64.73;25.73;;;;;;;;;;774023;177;917655;-65
2022/02/01 02:16:48;;;;;;;73.93;26.20;;;;;;;;;;774015;178;919655;-66
2022/02/01 02:19:14;;;;;;;45.97;24.90;;;;;;;;;;771091;180;915837;-66
2022/02/01 02:21:40;;;;;;;61.10;23.20;;;;;;;;;;776447;177;916648;-65
2022/02/01 02:24:07;;;;;;;52.50;22.90;;;;;;;;;;773911;179;919373;-66
2022/02/01 02:26:33;;;;;;;55.00;23.90;;;;;;;;;;775968;178;919462;-66
2022/02/01 02:28:59;;;;;;;51.93;20.20;;;;;;;;;;774321;180;918738;-65
2022/02/01 02:31:24;;;;;;;46.40;19.27;;;;;;;;;;772211;177;919614;-66
2022/02/01 02:33:50;;;;;;;39.43;18.20;;;;;;;;;;766554;180;917267;-65
2022/02/01 02:36:19;;;;;;;41.27;15.87;;;;;;;;;;758399;181;917903;-65
2022/02/01 02:38:47;;;;;;;42.80;17.03;;;;;;;;;;768444;179;918911;-66
2022/02/01 02:41:28;;;;;;;308.87;114.40;;;;;;;;;;776452;177;916064;-66
2022/02/01 02:46:07;;;;;;;125.85;39.25;;;;;;;;;;770362;181;915748;-66
2022/02/01 02:48:33;;;;;;;63.70;28.83;;;;;;;;;;774322;180;919445;-66
2022/02/01 02:51:00;;;;;;;46.63;19.40;;;;;;;;;;774157;180;919282;-66
2022/02/01 02:53:25;;;;;;;40.77;18.40;;;;;;;;;;780208;180;919173;-65
2022/02/01 02:55:51;;;;;;;54.80;20.33;;;;;;;;;;773804;180;919743;-66
2022/02/01 02:58:17;;;;;;;76.43;32.70;;;;;;;;;;767707;179;918890;-65
2022/02/01 03:00:43;;;;;;;84.63;31.20;;;;;;;;;;777045;180;919034;-66
2022/02/01 03:03:09;;;;;;;58.73;21.67;;;;;;;;;;768653;181;919346;-65
2022/02/01 03:05:34;;;;;;;64.22;22.62;;;;;;;;;;771934;180;920760;-65
2022/02/01 03:08:00;;;;;;;47.67;20.33;;;;;;;;;;774660;180;919327;-66
2022/02/01 03:10:27;;;;;;;101.80;42.43;;;;;;;;;;773789;181;919006;-65
2022/02/01 03:13:09;;;;;;;74.60;26.83;;;;;;;;;;770078;177;919019;-66
2022/02/01 03:15:39;;;;;;;110.03;43.17;;;;;;;;;;757183;181;919083;-66
2022/02/01 03:20:21;;;;;;;69.97;27.17;;;;;;;;;;774324;180;921061;-65
2022/02/01 03:22:46;;;;;;;52.63;21.37;;;;;;;;;;768364;180;1020658;-66
2022/02/01 03:25:14;;;;;;;46.70;18.93;;;;;;;;;;770195;177;918649;-66
2022/02/01 03:27:38;;;;;;;41.50;14.70;;;;;;;;;;773501;178;918959;-65
2022/02/01 03:30:04;;;;;;;44.60;15.20;;;;;;;;;;761781;181;920005;-65
2022/02/01 03:32:30;;;;;;;47.13;15.73;;;;;;;;;;772875;178;919051;-66
2022/02/01 03:34:56;;;;;;;65.70;23.30;;;;;;;;;;779570;180;916374;-66
2022/02/01 03:37:22;;;;;;;83.70;32.60;;;;;;;;;;772780;180;920014;-66
2022/02/01 03:39:48;;;;;;;68.82;31.65;;;;;;;;;;773560;180;1021076;-66
2022/02/01 03:42:14;;;;;;;68.18;30.30;;;;;;;;;;776532;180;918618;-65
2022/02/01 03:44:40;;;;;;;74.47;27.17;;;;;;;;;;776487;180;918974;-66
2022/02/01 03:47:06;;;;;;;65.90;27.20;;;;;;;;;;761416;181;919910;-65
2022/02/01 03:49:32;;;;;;;78.85;32.08;;;;;;;;;;769961;180;919599;-66
2022/02/01 03:51:58;;;;;;;55.63;24.23;;;;;;;;;;780609;177;937273;-65
2022/02/01 03:54:23;;;;;;;54.63;26.10;;;;;;;;;;773674;177;931903;-65
2022/02/01 03:56:49;;;;;;;51.10;23.50;;;;;;;;;;761079;183;919448;-66
2022/02/01 03:59:15;;;;;;;43.87;15.33;;;;;;;;;;772177;178;943432;-66
2022/02/01 04:01:41;;;;;;;60.90;15.70;;;;;;;;;;772621;179;920541;-66
2022/02/01 04:04:07;;;;;;;42.30;15.37;;;;;;;;;;773767;178;918164;-66
2022/02/01 04:06:33;;;;;;;51.80;19.27;;;;;;;;;;779576;180;919214;-66
2022/02/01 04:08:58;;;;;;;60.37;18.73;;;;;;;;;;776875;178;919553;-66
2022/02/01 04:11:24;;;;;;;51.80;15.87;;;;;;;;;;774977;180;918736;-65
2022/02/01 04:13:50;;;;;;;40.10;14.60;;;;;;;;;;773092;177;916131;-66
2022/02/01 04:16:16;;;;;;;29.47;14.33;;;;;;;;;;769915;180;922647;-65
2022/02/01 04:18:42;;;;;;;47.73;17.20;;;;;;;;;;772232;178;922589;-65
2022/02/01 04:21:08;;;;;;;47.27;18.63;;;;;;;;;;768737;180;950739;-66
2022/02/01 04:23:34;;;;;;;64.10;25.27;;;;;;;;;;775155;180;919380;-65
2022/02/01 04:25:59;;;;;;;73.83;27.83;;;;;;;;;;773329;180;917922;-66
2022/02/01 04:28:25;;;;;;;40.53;18.10;;;;;;;;;;769857;180;918823;-66
2022/02/01 04:30:51;;;;;;;59.40;18.67;;;;;;;;;;776983;180;918860;-65
2022/02/01 04:33:17;;;;;;;50.90;19.10;;;;;;;;;;774406;180;920748;-65
2022/02/01 04:35:43;;;;;;;41.70;16.30;;;;;;;;;;773566;178;919008;-66
2022/02/01 04:38:09;;;;;;;41.53;15.63;;;;;;;;;;773705;179;919258;-65
2022/02/01 04:40:35;;;;;;;53.40;19.33;;;;;;;;;;769691;181;919147;-65
2022/02/01 04:43:02;;;;;;;40.60;16.97;;;;;;;;;;770646;177;916462;-65
2022/02/01 04:45:26;;;;;;;34.33;18.10;;;;;;;;;;771463;179;1014909;-65
2022/02/01 04:47:52;;;;;;;29.87;16.63;;;;;;;;;;776320;180;919426;-66
2022/02/01 04:50:18;;;;;;;43.03;18.43;;;;;;;;;;769846;180;920059;-66
2022/02/01 04:52:45;;;;;;;41.23;18.43;;;;;;;;;;762259;182;918996;-65
2022/02/01 04:55:10;;;;;;;52.87;21.17;;;;;;;;;;779041;179;919168;-65
2022/02/01 04:57:41;;;;;;;40.20;19.93;;;;;;;;;;772833;180;920312;-66
2022/02/01 05:00:01;;;;;;;40.50;16.90;;;;;;;;;;775536;178;918794;-65
2022/02/01 05:02:27;;;;;;;38.90;15.23;;;;;;;;;;768350;180;919165;-65
2022/02/01 05:04:53;;;;;;;37.63;16.60;;;;;;;;;;772946;180;919438;-65
2022/02/01 05:07:21;;;;;;;39.67;16.13;;;;;;;;;;773977;180;859550;-66
2022/02/01 05:09:45;;;;;;;43.10;14.43;;;;;;;;;;773928;178;918922;-65
2022/02/01 05:12:10;;;;;;;58.23;17.07;;;;;;;;;;774948;181;918074;-65
2022/02/01 05:14:36;;;;;;;43.50;16.03;;;;;;;;;;775117;180;912719;-67
2022/02/01 05:17:03;;;;;;;39.03;15.10;;;;;;;;;;774914;180;628774;-65
2022/02/01 05:22:12;;;;;;;34.97;17.33;;;;;;;;;;780010;178;917767;-65
2022/02/01 05:24:37;;;;;;;29.80;13.47;;;;;;;;;;777885;180;999564;-65
2022/02/01 05:27:03;;;;;;;31.62;15.55;;;;;;;;;;768384;179;1020257;-65
2022/02/01 05:29:27;;;;;;;33.03;16.87;;;;;;;;;;774884;178;918535;-65
2022/02/01 05:31:52;;;;;;;44.10;19.03;;;;;;;;;;773590;178;918632;-65
2022/02/01 05:34:18;;;;;;;31.23;15.10;;;;;;;;;;773896;180;918827;-65
2022/02/01 05:36:44;;;;;;;34.20;13.83;;;;;;;;;;775327;178;919431;-64
2022/02/01 05:39:14;;;;;;;28.70;13.73;;;;;;;;;;778688;180;921189;-65
2022/02/01 05:41:40;;;;;;;39.83;17.17;;;;;;;;;;775859;178;653940;-65
2022/02/01 05:44:05;;;;;;;34.60;15.33;;;;;;;;;;774785;180;918354;-67
2022/02/01 05:46:32;;;;;;;24.70;14.10;;;;;;;;;;779050;180;920464;-65
2022/02/01 05:48:57;;;;;;;39.17;14.83;;;;;;;;;;762307;181;919071;-65
2022/02/01 05:51:23;;;;;;;42.33;16.63;;;;;;;;;;771977;179;919021;-65
2022/02/01 05:53:49;;;;;;;30.43;9.90;;;;;;;;;;776843;181;919810;-66
2022/02/01 05:56:15;;;;;;;26.40;11.73;;;;;;;;;;773534;180;920456;-66
2022/02/01 05:58:41;;;;;;;34.93;10.23;;;;;;;;;;774780;180;916775;-66
2022/02/01 06:01:06;;;;;;;35.87;14.40;;;;;;;;;;773465;179;979092;-65
2022/02/01 06:03:32;;;;;;;32.47;18.90;;;;;;;;;;778353;178;913388;-68
2022/02/01 06:05:59;;;;;;;38.17;14.70;;;;;;;;;;775555;176;924656;-64
2022/02/01 06:08:24;;;;;;;42.20;20.87;;;;;;;;;;775800;176;919598;-65
2022/02/01 06:10:50;;;;;;;42.73;17.93;;;;;;;;;;776444;180;915218;-64
2022/02/01 06:13:16;;;;;;;47.03;19.33;;;;;;;;;;769322;181;923734;-66
2022/02/01 06:15:41;;;;;;;34.53;17.37;;;;;;;;;;772100;178;920062;-65
2022/02/01 06:18:07;;;;;;;39.73;19.20;;;;;;;;;;763746;180;918513;-66
2022/02/01 06:20:33;;;;;;;36.57;16.63;;;;;;;;;;768881;178;1018452;-65
2022/02/01 06:22:59;;;;;;;36.97;18.60;;;;;;;;;;773814;178;1016920;-65
2022/02/01 06:25:47;;;;;;;49.70;18.03;;;;;;;;;;772534;177;919565;-64
2022/02/01 06:27:51;;;;;;;46.63;21.13;;;;;;;;;;765917;181;919734;-65
2022/02/01 06:30:16;;;;;;;44.27;18.60;;;;;;;;;;769757;179;919728;-66
2022/02/01 06:32:42;;;;;;;35.87;16.83;;;;;;;;;;773561;178;918612;-64
2022/02/01 06:35:09;;;;;;;35.43;18.47;;;;;;;;;;783284;180;712773;-65
2022/02/01 06:37:34;;;;;;;38.13;18.60;;;;;;;;;;776795;180;919187;-66
2022/02/01 06:40:02;;;;;;;46.80;19.53;;;;;;;;;;774016;178;933832;-65
2022/02/01 06:42:28;;;;;;;47.90;18.30;;;;;;;;;;778213;181;918893;-65
2022/02/01 06:44:54;;;;;;;36.07;17.67;;;;;;;;;;765630;181;918963;-66
2022/02/01 06:47:20;;;;;;;43.67;18.40;;;;;;;;;;765238;177;919397;-65
2022/02/01 06:49:46;;;;;;;44.90;18.87;;;;;;;;;;773975;180;918340;-65
2022/02/01 06:52:12;;;;;;;41.50;17.80;;;;;;;;;;770107;181;948239;-65
2022/02/01 06:54:39;;;;;;;34.63;16.25;;;;;;;;;;765995;180;918412;-68
2022/02/01 06:57:04;;;;;;;56.13;18.70;;;;;;;;;;770575;180;1021473;-65
2022/02/01 06:59:29;;;;;;;56.50;17.23;;;;;;;;;;782106;177;619862;-65
2022/02/01 07:01:55;;;;;;;37.63;17.00;;;;;;;;;;775065;180;919088;-65
2022/02/01 07:04:21;;;;;;;43.07;17.40;;;;;;;;;;773037;178;919250;-65
2022/02/01 07:06:47;;;;;;;49.40;20.60;;;;;;;;;;779922;179;918761;-65
2022/02/01 07:09:14;;;;;;;44.90;18.17;;;;;;;;;;771376;180;918767;-65
2022/02/01 07:11:39;;;;;;;46.53;19.17;;;;;;;;;;767878;179;919220;-65
2022/02/01 07:14:04;;;;;;;52.50;18.23;;;;;;;;;;776298;180;919748;-65
2022/02/01 07:16:30;;;;;;;39.73;17.40;;;;;;;;;;771210;180;919464;-65
2022/02/01 07:18:56;;;;;;;39.03;18.20;;;;;;;;;;773155;179;919332;-64
2022/02/01 07:21:24;;;;;;;35.83;17.57;;;;;;;;;;773188;180;919096;-64
2022/02/01 07:23:48;;;;;;;51.07;18.37;;;;;;;;;;780964;180;920275;-64
2022/02/01 07:26:14;;;;;;;44.83;17.97;;;;;;;;;;774508;180;1036829;-64
2022/02/01 07:28:40;;;;;;;43.10;18.90;;;;;;;;;;767453;180;919056;-64
2022/02/01 07:31:06;;;;;;;39.33;15.40;;;;;;;;;;775063;180;919293;-64
2022/02/01 07:33:31;;;;;;;31.77;14.50;;;;;;;;;;775653;180;919506;-65
2022/02/01 07:35:57;;;;;;;57.00;17.77;;;;;;;;;;773157;178;921655;-64
2022/02/01 07:38:24;;;;;;;44.00;15.03;;;;;;;;;;777699;181;918454;-64
2022/02/01 07:40:49;;;;;;;35.43;14.47;;;;;;;;;;772546;177;918602;-63
2022/02/01 07:43:15;;;;;;;28.87;13.90;;;;;;;;;;773537;179;920301;-64
2022/02/01 07:45:42;;;;;;;36.23;13.63;;;;;;;;;;774341;179;919374;-63
2022/02/01 07:48:06;;;;;;;52.27;15.60;;;;;;;;;;770651;180;918779;-63
2022/02/01 07:50:33;;;;;;;47.50;14.95;;;;;;;;;;767168;181;918572;-63
2022/02/01 07:52:59;;;;;;;33.07;13.33;;;;;;;;;;773591;178;919003;-64
2022/02/01 07:55:24;;;;;;;30.63;13.60;;;;;;;;;;777774;181;919573;-63
2022/02/01 07:57:50;;;;;;;28.03;12.30;;;;;;;;;;774661;178;919676;-63
2022/02/01 08:00:16;;;;;;;37.03;13.77;;;;;;;;;;774477;177;919674;-63
2022/02/01 08:02:43;;;;;;;32.27;13.47;;;;;;;;;;779020;178;1031099;-63
2022/02/01 08:05:08;;;;;;;51.43;16.40;;;;;;;;;;774932;180;918751;-62
2022/02/01 08:07:34;;;;;;;43.42;16.00;;;;;;;;;;774742;180;921992;-63
2022/02/01 08:10:02;;;;;;;40.43;13.70;;;;;;;;;;767366;179;920795;-62
2022/02/01 08:15:57;;;;;;;34.93;13.47;;;;;;;;;;764738;180;918507;-63
2022/02/01 08:17:48;;;;;;;42.27;14.07;;;;;;;;;;762165;178;920009;-63
2022/02/01 08:20:09;;;;;;;32.97;10.97;;;;;;;;;;772079;177;916826;-64
2022/02/01 08:22:48;;;;;;;53.80;11.30;;;;;;;;;;768762;180;915370;-64
2022/02/01 08:25:00;;;;;;;35.73;13.00;;;;;;;;;;772233;179;918372;-65
2022/02/01 08:27:26;;;;;;;34.07;14.00;;;;;;;;;;775243;178;919148;-64
2022/02/01 08:29:52;;;;;;;35.80;11.33;;;;;;;;;;776041;178;924493;-64
2022/02/01 08:32:18;;;;;;;31.07;11.83;;;;;;;;;;780890;180;918041;-63
2022/02/01 08:34:43;;;;;;;23.77;10.93;;;;;;;;;;762809;182;919468;-65
2022/02/01 08:37:11;;;;;;;33.77;12.77;;;;;;;;;;773688;181;919332;-64
2022/02/01 08:39:35;;;;;;;22.23;8.97;;;;;;;;;;778400;179;918611;-64
2022/02/01 08:42:01;;;;;;;25.20;10.77;;;;;;;;;;772931;178;1021034;-64
2022/02/01 08:44:29;;;;;;;26.20;12.70;;;;;;;;;;772368;180;918919;-65
2022/02/01 08:46:53;;;;;;;34.77;10.87;;;;;;;;;;772522;180;918639;-64
2022/02/01 08:49:19;;;;;;;24.70;11.30;;;;;;;;;;771587;178;920174;-64
2022/02/01 08:51:48;;;;;;;24.30;11.20;;;;;;;;;;771467;180;919750;-65
2022/02/01 08:54:15;;;;;;;30.37;12.77;;;;;;;;;;775318;180;918881;-65
2022/02/01 08:59:09;;;;;;;34.27;12.63;;;;;;;;;;749668;186;919400;-64
2022/02/01 09:01:34;;;;;;;21.27;9.93;;;;;;;;;;765623;180;919280;-64
2022/02/01 09:04:00;;;;;;;24.00;12.00;;;;;;;;;;779753;180;919117;-65
2022/02/01 09:06:26;;;;;;;29.50;10.20;;;;;;;;;;771168;180;1021825;-65
2022/02/01 09:08:52;;;;;;;33.53;12.70;;;;;;;;;;770812;180;919371;-65
2022/02/01 09:11:18;;;;;;;34.63;13.87;;;;;;;;;;773954;181;918599;-65
2022/02/01 09:13:44;;;;;;;34.23;12.73;;;;;;;;;;771194;180;919301;-65
2022/02/01 09:16:10;;;;;;;19.90;10.77;;;;;;;;;;773866;177;919818;-64
2022/02/01 09:18:35;;;;;;;16.50;9.53;;;;;;;;;;771921;177;919217;-65
2022/02/01 09:21:01;;;;;;;18.77;8.50;;;;;;;;;;775306;181;921379;-64
2022/02/01 09:23:27;;;;;;;29.00;9.03;;;;;;;;;;770532;180;919082;-65
2022/02/01 09:25:53;;;;;;;16.90;9.40;;;;;;;;;;770602;180;919042;-64
2022/02/01 09:28:19;;;;;;;16.50;8.70;;;;;;;;;;771801;180;1022140;-65
2022/02/01 09:30:47;;;;;;;25.90;9.50;;;;;;;;;;766659;180;919434;-64
2022/02/01 09:33:10;;;;;;;18.60;9.43;;;;;;;;;;773177;179;918698;-64
2022/02/01 09:35:36;;;;;;;23.83;8.70;;;;;;;;;;781686;178;919042;-64
2022/02/01 09:38:02;;;;;;;17.00;8.40;;;;;;;;;;762635;177;921589;-64
2022/02/01 09:40:28;;;;;;;22.70;10.90;;;;;;;;;;763976;181;920721;-65
2022/02/01 09:42:54;;;;;;;14.93;9.30;;;;;;;;;;768651;179;918244;-65
2022/02/01 09:45:20;;;;;;;22.93;9.43;;;;;;;;;;772268;180;919440;-65
2022/02/01 09:47:47;;;;;;;17.13;8.50;;;;;;;;;;767972;180;919434;-64
2022/02/01 09:50:11;;;;;;;20.07;11.30;;;;;;;;;;769441;180;623207;-65
2022/02/01 09:52:39;;;;;;;20.07;11.63;;;;;;;;;;772397;180;644819;-65
2022/02/01 09:55:04;;;;;;;21.03;10.97;;;;;;;;;;772739;179;919277;-64
2022/02/01 09:57:29;;;;;;;16.97;9.17;;;;;;;;;;778833;180;627104;-63
2022/02/01 09:59:55;;;;;;;19.57;8.57;;;;;;;;;;781346;181;629943;-64
2022/02/01 10:02:22;;;;;;;21.83;10.57;;;;;;;;;;778453;179;635540;-64
2022/02/01 10:04:48;;;;;;;27.93;10.30;;;;;;;;;;779692;180;624880;-64
2022/02/01 10:07:14;;;;;;;29.87;10.37;;;;;;;;;;779777;180;629120;-64
2022/02/01 10:09:45;;;;;;;22.63;11.40;;;;;;;;;;777626;180;631660;-64
2022/02/01 10:12:14;;;;;;;24.87;9.83;;;;;;;;;;776456;177;1020249;-63
2022/02/01 10:14:48;;;;;;;27.00;10.40;;;;;;;;;;772143;180;1021918;-64
2022/02/01 10:17:09;;;;;;;19.20;8.40;;;;;;;;;;772230;180;919207;-63
2022/02/01 10:19:32;;;;;;;21.33;8.90;;;;;;;;;;767244;180;919125;-64
2022/02/01 10:21:57;;;;;;;17.77;10.10;;;;;;;;;;764674;180;919541;-64
2022/02/01 10:24:28;;;;;;;26.35;9.10;;;;;;;;;;761427;180;918737;-65
2022/02/01 10:26:54;;;;;;;19.23;9.20;;;;;;;;;;769680;180;790757;-64
2022/02/01 10:29:22;;;;;;;18.83;9.00;;;;;;;;;;767358;180;640267;-65
2022/02/01 10:31:54;;;;;;;30.37;12.63;;;;;;;;;;764347;180;626085;-64
2022/02/01 10:34:27;;;;;;;19.30;10.30;;;;;;;;;;756170;181;901627;-64
2022/02/01 10:36:40;;;;;;;24.63;10.23;;;;;;;;;;757129;181;918061;-65
2022/02/01 10:39:12;;;;;;;25.83;11.90;;;;;;;;;;746939;184;918776;-64
2022/02/01 10:41:38;;;;;;;30.53;11.27;;;;;;;;;;738691;186;919545;-65
2022/02/01 10:44:04;;;;;;;21.90;10.43;;;;;;;;;;742243;189;918736;-64
2022/02/01 10:46:30;;;;;;;18.83;8.00;;;;;;;;;;758104;181;918976;-64
2022/02/01 10:48:56;;;;;;;20.53;11.50;;;;;;;;;;772083;180;919631;-65
2022/02/01 10:51:22;;;;;;;18.48;8.00;;;;;;;;;;754999;184;919555;-64
2022/02/01 10:53:48;;;;;;;13.93;8.00;;;;;;;;;;738846;187;921633;-64
2022/02/01 10:56:14;;;;;;;23.93;8.07;;;;;;;;;;741042;188;918112;-64
2022/02/01 10:58:40;;;;;;;18.90;7.90;;;;;;;;;;748982;183;1008294;-63
2022/02/01 11:01:06;;;;;;;19.60;8.50;;;;;;;;;;738815;189;956040;-64
2022/02/01 11:03:31;;;;;;;14.37;7.50;;;;;;;;;;743561;186;919046;-64
2022/02/01 11:05:57;;;;;;;17.37;8.70;;;;;;;;;;745174;186;919391;-64
2022/02/01 11:08:26;;;;;;;15.10;7.93;;;;;;;;;;751050;185;920257;-62
2022/02/01 11:10:49;;;;;;;25.87;8.00;;;;;;;;;;749090;186;915373;-64
2022/02/01 11:13:15;;;;;;;15.23;8.73;;;;;;;;;;743296;185;924247;-63
2022/02/01 11:15:42;;;;;;;9.27;5.00;;;;;;;;;;749531;185;918992;-64
2022/02/01 11:18:07;;;;;;;18.50;9.47;;;;;;;;;;776648;179;919518;-64
2022/02/01 11:20:33;;;;;;;12.97;7.10;;;;;;;;;;771614;180;921582;-64
2022/02/01 11:23:00;;;;;;;23.30;8.77;;;;;;;;;;769044;179;1021213;-64
2022/02/01 11:25:29;;;;;;;18.20;6.68;;;;;;;;;;779886;177;917106;-63
2022/02/01 11:28:09;;;;;;;14.00;7.77;;;;;;;;;;774085;180;919644;-64
2022/02/01 11:30:24;;;;;;;22.97;7.30;;;;;;;;;;761405;181;1022743;-63
2022/02/01 11:32:50;;;;;;;20.13;6.80;;;;;;;;;;774126;178;917926;-63
2022/02/01 11:35:20;;;;;;;18.07;8.50;;;;;;;;;;773309;178;921742;-64
2022/02/01 11:37:48;;;;;;;17.27;9.30;;;;;;;;;;772713;180;918888;-63
2022/02/01 11:40:14;;;;;;;23.60;8.00;;;;;;;;;;766223;177;919686;-64
2022/02/01 11:42:41;;;;;;;18.90;9.60;;;;;;;;;;763281;180;919375;-64
2022/02/01 11:45:07;;;;;;;17.27;7.77;;;;;;;;;;770307;180;919390;-64
2022/02/01 11:47:35;;;;;;;18.10;9.73;;;;;;;;;;761417;181;919326;-64
2022/02/01 11:50:02;;;;;;;13.03;8.00;;;;;;;;;;767308;180;919866;-65
2022/02/01 11:52:28;;;;;;;19.07;9.60;;;;;;;;;;774968;179;1019307;-64
2022/02/01 11:55:00;;;;;;;16.93;9.40;;;;;;;;;;773094;179;919279;-64
2022/02/01 11:57:25;;;;;;;19.30;7.10;;;;;;;;;;773040;178;919570;-64
2022/02/01 11:59:51;;;;;;;30.00;8.90;;;;;;;;;;774517;180;919615;-64
2022/02/01 12:02:21;;;;;;;19.80;9.03;;;;;;;;;;773928;180;918492;-65
2022/02/01 12:04:47;;;;;;;15.50;8.30;;;;;;;;;;772836;178;918222;-63
2022/02/01 12:07:14;;;;;;;34.10;10.83;;;;;;;;;;770348;177;1019756;-64
2022/02/01 12:09:40;;;;;;;19.13;8.40;;;;;;;;;;779272;180;918438;-64
2022/02/01 12:12:05;;;;;;;19.03;9.83;;;;;;;;;;772210;181;919071;-63
2022/02/01 12:14:31;;;;;;;19.37;9.20;;;;;;;;;;772920;180;927390;-63
2022/02/01 12:16:56;;;;;;;24.37;8.83;;;;;;;;;;776470;180;1021001;-64
2022/02/01 12:19:22;;;;;;;20.50;7.93;;;;;;;;;;771289;180;919355;-63
2022/02/01 12:21:51;;;;;;;15.50;7.73;;;;;;;;;;775966;180;920224;-64
2022/02/01 12:24:17;;;;;;;11.73;6.80;;;;;;;;;;773152;180;920318;-62
2022/02/01 12:26:42;;;;;;;15.63;7.80;;;;;;;;;;777924;177;919110;-63
2022/02/01 12:29:09;;;;;;;14.03;7.07;;;;;;;;;;773296;177;917346;-63
2022/02/01 12:31:38;;;;;;;10.17;7.10;;;;;;;;;;766678;177;918010;-63
2022/02/01 12:34:01;;;;;;;12.97;6.70;;;;;;;;;;763517;181;921756;-63
2022/02/01 12:36:29;;;;;;;20.98;7.10;;;;;;;;;;774332;178;917004;-61
2022/02/01 12:39:16;;;;;;;12.63;6.70;;;;;;;;;;770582;179;916223;-64
2022/02/01 12:41:43;;;;;;;15.10;8.83;;;;;;;;;;772991;179;918367;-64
2022/02/01 12:46:50;;;;;;;16.50;9.63;;;;;;;;;;768414;180;925794;-64
2022/02/01 12:49:13;;;;;;;11.53;7.23;;;;;;;;;;772593;178;918399;-64
2022/02/01 12:51:39;;;;;;;16.63;9.90;;;;;;;;;;770960;179;920020;-64
2022/02/01 12:54:05;;;;;;;8.97;6.23;;;;;;;;;;771273;180;919591;-64
2022/02/01 12:56:31;;;;;;;11.23;6.57;;;;;;;;;;777050;180;919481;-63
2022/02/01 12:58:57;;;;;;;25.17;8.60;;;;;;;;;;769529;180;1021108;-64
2022/02/01 13:01:28;;;;;;;13.00;7.93;;;;;;;;;;770329;180;918731;-64
2022/02/01 13:03:54;;;;;;;16.13;8.20;;;;;;;;;;771678;179;920253;-64
2022/02/01 13:06:22;;;;;;;11.35;5.70;;;;;;;;;;769827;182;920053;-64
2022/02/01 13:12:57;;;;;;;10.37;7.70;;;;;;;;;;767177;179;919128;-64
2022/02/01 13:14:25;;;;;;;11.10;6.27;;;;;;;;;;777112;180;916859;-64
2022/02/01 13:16:21;;;;;;;14.87;7.90;;;;;;;;;;776332;180;919806;-62
2022/02/01 13:21:25;;;;;;;17.00;9.57;;;;;;;;;;773938;177;918134;-64
2022/02/01 13:23:51;;;;;;;18.80;8.43;;;;;;;;;;772187;178;918785;-68
2022/02/01 13:26:17;;;;;;;12.37;8.37;;;;;;;;;;779525;178;915185;-63
2022/02/01 13:28:43;;;;;;;16.20;9.00;;;;;;;;;;773384;177;920547;-64
2022/02/01 13:31:12;;;;;;;22.73;10.53;;;;;;;;;;772037;180;921166;-63
2022/02/01 13:33:40;;;;;;;15.33;8.57;;;;;;;;;;778487;177;916566;-64
2022/02/01 13:36:06;;;;;;;12.70;7.33;;;;;;;;;;779649;178;919426;-64
2022/02/01 13:38:32;;;;;;;15.57;9.23;;;;;;;;;;776564;177;916554;-64
2022/02/01 13:40:58;;;;;;;17.00;10.07;;;;;;;;;;772763;177;978417;-64
2022/02/01 13:43:24;;;;;;;19.40;10.30;;;;;;;;;;774994;180;1017954;-64
2022/02/01 13:45:50;;;;;;;12.80;8.30;;;;;;;;;;773479;180;919567;-64
2022/02/01 13:48:17;;;;;;;11.17;7.43;;;;;;;;;;771960;177;919275;-64
2022/02/01 13:50:43;;;;;;;14.17;9.10;;;;;;;;;;764261;181;919406;-62
2022/02/01 13:53:09;;;;;;;15.57;7.80;;;;;;;;;;771977;177;919991;-63
2022/02/01 13:55:38;;;;;;;13.63;8.00;;;;;;;;;;772280;180;1020627;-65
2022/02/01 13:58:01;;;;;;;12.37;7.00;;;;;;;;;;773186;179;1021628;-64
2022/02/01 14:00:30;;;;;;;13.50;6.90;;;;;;;;;;769146;181;919107;-64
2022/02/01 14:02:57;;;;;;;12.60;7.37;;;;;;;;;;773831;180;918759;-65
2022/02/01 14:05:26;;;;;;;11.60;7.60;;;;;;;;;;773088;180;1020200;-64
2022/02/01 14:10:34;;;;;;;11.33;6.33;;;;;;;;;;776136;178;919281;-64
2022/02/01 14:23:35;;;;;;;10.20;6.33;;;;;;;;;;762363;181;919071;-64
2022/02/01 14:25:48;;;;;;;10.60;5.77;;;;;;;;;;757735;181;919735;-65
2022/02/01 14:28:13;;;;;;;12.25;7.07;;;;;;;;;;775098;177;918743;-65
2022/02/01 14:33:29;;;;;;;8.23;6.50;;;;;;;;;;770532;179;966320;-64
2022/02/01 14:35:48;;;;;;;12.67;7.00;;;;;;;;;;779935;178;797947;-65
2022/02/01 14:43:25;;;;;;;8.57;4.77;;;;;;;;;;772431;177;915484;-64
2022/02/01 14:45:43;;;;;;;5.23;3.93;;;;;;;;;;770391;181;916086;-64
2022/02/01 14:48:09;;;;;;;10.80;5.77;;;;;;;;;;772924;178;920316;-65
2022/02/01 14:50:35;;;;;;;9.00;6.47;;;;;;;;;;768316;180;914662;-64
2022/02/01 14:53:01;;;;;;;10.93;5.70;;;;;;;;;;769957;180;919929;-63
2022/02/01 14:55:34;;;;;;;8.20;5.70;;;;;;;;;;779505;180;919521;-64
2022/02/01 15:06:04;;;;;;;8.93;5.47;;;;;;;;;;778176;178;918817;-63
2022/02/01 15:12:59;;;;;;;9.20;5.90;;;;;;;;;;759773;181;919665;-65
2022/02/01 15:15:25;;;;;;;9.53;4.60;;;;;;;;;;772274;180;918916;-65
2022/02/01 15:17:51;;;;;;;11.37;6.00;;;;;;;;;;767056;180;919047;-65
2022/02/01 15:20:17;;;;;;;10.43;5.90;;;;;;;;;;771470;179;921278;-65
2022/02/01 15:22:45;;;;;;;10.00;6.25;;;;;;;;;;776813;177;919557;-62
2022/02/01 15:25:09;;;;;;;9.90;5.77;;;;;;;;;;780963;180;920374;-65
2022/02/01 15:27:35;;;;;;;12.33;7.00;;;;;;;;;;767613;180;919982;-65
2022/02/01 15:30:01;;;;;;;12.75;6.47;;;;;;;;;;770557;179;944733;-64
2022/02/01 15:32:27;;;;;;;11.27;6.68;;;;;;;;;;773462;177;917892;-64
2022/02/01 15:34:53;;;;;;;12.80;6.93;;;;;;;;;;767083;178;919269;-63
2022/02/01 15:37:23;;;;;;;10.93;6.10;;;;;;;;;;770167;180;919316;-64
2022/02/01 15:55:29;;;;;;;17.23;8.80;;;;;;;;;;778624;177;919590;-64
2022/02/01 15:57:43;;;;;;;13.93;7.53;;;;;;;;;;768935;177;1021620;-65
2022/02/01 16:00:04;;;;;;;11.33;6.97;;;;;;;;;;757160;181;919146;-65
2022/02/01 16:02:33;;;;;;;16.90;8.20;;;;;;;;;;773362;180;919114;-66